Time;durP1;ratioP1;P1;durP2;ratioP2;P2;SDS_P1;SDS_P2;PMS_P1;PMS_P2;Temp;Humidity;BMP_temperature;BMP_pressure;BME280_temperature;BME280_humidity;BME280_pressure;Samples;Min_cycle;Max_cycle;Signal;HPM_P1;HPM_P2
2022/03/10 00:01:29;;;;;;;42.13;27.80;;;13.30;52.20;;;;;;5075293;28;20025;-76
2022/03/10 00:03:56;;;;;;;42.95;28.25;;;13.20;52.10;;;;;;5075911;28;20035;-76
2022/03/10 00:06:21;;;;;;;40.97;28.02;;;13.20;52.50;;;;;;5075889;28;20032;-76
2022/03/10 00:08:47;;;;;;;40.55;27.60;;;13.20;52.60;;;;;;5075774;28;20386;-76
2022/03/10 00:11:13;;;;;;;37.08;27.50;;;13.20;52.40;;;;;;5075570;28;20490;-76
2022/03/10 00:13:38;;;;;;;44.83;28.83;;;13.10;52.60;;;;;;5075541;28;20169;-76
2022/03/10 00:16:04;;;;;;;44.58;28.25;;;13.10;52.50;;;;;;5075094;28;20024;-71
2022/03/10 00:18:29;;;;;;;40.50;26.33;;;13.20;52.70;;;;;;5075693;28;20029;-73
2022/03/10 00:20:55;;;;;;;44.03;28.00;;;13.10;53.00;;;;;;5057231;28;20025;-72
2022/03/10 00:23:20;;;;;;;42.85;29.13;;;13.10;52.80;;;;;;5075580;28;20052;-77
2022/03/10 00:25:46;;;;;;;38.58;27.52;;;13.10;52.70;;;;;;5075599;28;20044;-74
2022/03/10 00:28:11;;;;;;;40.90;26.33;;;13.00;53.00;;;;;;5075238;28;20064;-76
2022/03/10 00:30:37;;;;;;;45.85;27.52;;;13.00;52.90;;;;;;5074973;28;20052;-76
2022/03/10 00:33:03;;;;;;;42.90;26.42;;;13.00;52.90;;;;;;5075315;28;20024;-76
2022/03/10 00:35:29;;;;;;;40.70;27.85;;;13.00;52.80;;;;;;5074796;28;20397;-75
2022/03/10 00:37:55;;;;;;;38.60;26.30;;;12.90;53.10;;;;;;5075322;28;20090;-76
2022/03/10 00:40:21;;;;;;;38.90;25.80;;;12.90;53.50;;;;;;5074793;28;20024;-71
2022/03/10 00:42:47;;;;;;;39.42;26.23;;;12.90;53.20;;;;;;5075129;28;20035;-74
2022/03/10 00:45:14;;;;;;;40.63;26.85;;;12.90;53.70;;;;;;5074731;28;20024;-76
2022/03/10 00:47:41;;;;;;;38.50;26.77;;;12.80;53.80;;;;;;5074979;28;20021;-76
2022/03/10 00:50:08;;;;;;;40.42;27.33;;;12.90;53.60;;;;;;5074995;28;20016;-76
2022/03/10 00:52:42;;;;;;;36.95;26.02;;;12.90;53.50;;;;;;5074394;28;20016;-73
2022/03/10 00:55:08;;;;;;;39.80;26.20;;;12.90;53.50;;;;;;5074823;28;20033;-75
2022/03/10 00:57:34;;;;;;;35.70;25.35;;;12.80;53.60;;;;;;5074630;28;20024;-75
2022/03/10 01:00:00;;;;;;;39.38;27.17;;;12.80;53.70;;;;;;5074495;28;20024;-74
2022/03/10 01:02:25;;;;;;;41.30;25.85;;;12.80;53.60;;;;;;5074541;28;20025;-73
2022/03/10 01:04:51;;;;;;;41.58;27.52;;;12.90;53.60;;;;;;5056613;28;20047;-73
2022/03/10 01:07:16;;;;;;;37.63;25.30;;;12.80;53.60;;;;;;5074554;28;20027;-69
2022/03/10 01:09:42;;;;;;;39.22;25.98;;;12.80;53.80;;;;;;5074437;28;20024;-75
2022/03/10 01:12:07;;;;;;;40.10;27.10;;;12.70;53.90;;;;;;5074538;28;20031;-67
2022/03/10 01:14:33;;;;;;;40.95;26.88;;;12.70;54.00;;;;;;5073935;28;20108;-73
2022/03/10 01:16:59;;;;;;;39.05;25.85;;;12.70;54.00;;;;;;5074382;28;20401;-74
2022/03/10 01:19:25;;;;;;;34.97;25.65;;;12.70;54.40;;;;;;5074682;28;20052;-73
2022/03/10 01:21:50;;;;;;;37.55;25.05;;;12.70;54.40;;;;;;5074122;28;20066;-75
2022/03/10 01:24:16;;;;;;;36.97;25.00;;;12.70;54.40;;;;;;5074305;28;20047;-71
2022/03/10 01:26:41;;;;;;;37.05;25.88;;;12.60;54.60;;;;;;5074046;28;20096;-70
2022/03/10 01:29:07;;;;;;;35.65;25.55;;;12.60;54.80;;;;;;5073940;28;20046;-73
2022/03/10 01:31:33;;;;;;;38.60;24.55;;;12.60;54.70;;;;;;5073874;28;20016;-74
2022/03/10 01:33:59;;;;;;;33.97;24.58;;;12.60;54.80;;;;;;5074189;28;20033;-76
2022/03/10 01:36:25;;;;;;;41.53;24.58;;;12.60;55.00;;;;;;5073998;28;20080;-69
2022/03/10 01:38:52;;;;;;;36.83;24.33;;;12.60;55.10;;;;;;5074010;28;20025;-76
2022/03/10 01:41:17;;;;;;;34.25;24.08;;;12.60;55.10;;;;;;5073809;28;20020;-76
2022/03/10 01:44:03;;;;;;;34.92;25.40;;;12.60;55.20;;;;;;5073528;28;20492;-76
2022/03/10 01:46:29;;;;;;;34.30;23.50;;;12.60;54.80;;;;;;5074044;28;20032;-76
2022/03/10 01:48:55;;;;;;;33.80;24.95;;;12.60;55.10;;;;;;5073821;28;20150;-76
2022/03/10 01:51:22;;;;;;;36.22;24.15;;;12.60;55.30;;;;;;5073764;28;20033;-76
2022/03/10 01:53:50;;;;;;;37.30;24.95;;;12.50;55.30;;;;;;5073406;28;20039;-75
2022/03/10 01:56:19;;;;;;;36.08;25.45;;;12.50;55.30;;;;;;5073742;28;20032;-75
2022/03/10 01:58:47;;;;;;;35.70;23.90;;;12.50;55.40;;;;;;5073179;28;20033;-76
2022/03/10 02:01:13;;;;;;;34.65;25.27;;;12.50;55.30;;;;;;5073671;28;20051;-75
2022/03/10 02:03:39;;;;;;;37.50;24.83;;;12.50;55.30;;;;;;5072456;28;20086;-76
2022/03/10 02:06:05;;;;;;;34.00;24.60;;;12.50;55.50;;;;;;5073377;28;20028;-76
2022/03/10 02:11:16;;;;;;;34.15;24.20;;;12.40;55.50;;;;;;5073205;28;20031;-74
2022/03/10 02:13:42;;;;;;;32.92;24.50;;;12.40;55.70;;;;;;5073251;28;20036;-74
2022/03/10 02:18:59;;;;;;;34.80;25.90;;;12.40;55.70;;;;;;5073623;28;20043;-76
2022/03/10 02:21:25;;;;;;;34.42;24.13;;;12.30;56.00;;;;;;5073298;28;20029;-75
2022/03/10 02:23:50;;;;;;;34.58;23.90;;;12.30;56.20;;;;;;5073054;28;20056;-76
2022/03/10 02:26:16;;;;;;;35.88;23.77;;;12.30;56.20;;;;;;5072895;28;20480;-73
2022/03/10 02:28:42;;;;;;;33.58;23.77;;;12.30;56.40;;;;;;5055467;28;20404;-73
2022/03/10 02:31:09;;;;;;;32.42;22.98;;;12.30;56.40;;;;;;5073344;28;20073;-73
2022/03/10 02:33:35;;;;;;;35.78;23.67;;;12.30;56.60;;;;;;5072994;28;20020;-74
2022/03/10 02:36:01;;;;;;;36.63;24.35;;;12.20;56.60;;;;;;5054801;28;20050;-75
2022/03/10 02:38:26;;;;;;;33.30;23.60;;;12.30;56.60;;;;;;5073053;28;20036;-76
2022/03/10 02:40:52;;;;;;;34.33;24.45;;;12.20;56.60;;;;;;5072817;28;20021;-73
2022/03/10 02:43:19;;;;;;;33.67;24.17;;;12.20;56.50;;;;;;5073081;28;20059;-77
2022/03/10 02:45:46;;;;;;;31.45;23.85;;;12.20;56.70;;;;;;5073060;28;20028;-76
2022/03/10 02:48:12;;;;;;;33.05;23.90;;;12.20;57.00;;;;;;5072928;28;20017;-76
2022/03/10 02:50:38;;;;;;;36.55;24.27;;;12.10;57.00;;;;;;5072896;28;20497;-76
2022/03/10 02:53:05;;;;;;;32.72;24.88;;;12.10;57.10;;;;;;5072941;28;20027;-76
2022/03/10 02:55:31;;;;;;;31.58;23.55;;;12.10;57.20;;;;;;5072822;28;20043;-76
2022/03/10 02:57:57;;;;;;;31.35;23.20;;;12.00;57.50;;;;;;5072870;28;20081;-74
2022/03/10 03:00:23;;;;;;;33.38;23.20;;;12.00;57.70;;;;;;5072758;28;20048;-73
2022/03/10 03:02:49;;;;;;;30.15;22.88;;;12.00;57.90;;;;;;5073005;28;20036;-76
2022/03/10 03:05:15;;;;;;;34.50;24.02;;;12.00;58.40;;;;;;5072870;28;20017;-72
2022/03/10 03:07:41;;;;;;;35.47;24.30;;;12.00;57.80;;;;;;5072750;28;20056;-76
2022/03/10 03:10:08;;;;;;;37.03;23.50;;;12.00;58.00;;;;;;5072594;28;20016;-77
2022/03/10 03:12:33;;;;;;;33.45;23.45;;;12.00;57.70;;;;;;5072783;28;20023;-77
2022/03/10 03:15:00;;;;;;;32.35;23.10;;;12.00;58.00;;;;;;5073997;28;20032;-70
2022/03/10 03:17:26;;;;;;;31.00;23.48;;;11.90;58.00;;;;;;5076874;28;20020;-75
2022/03/10 03:19:52;;;;;;;30.73;23.50;;;11.90;58.30;;;;;;5076375;28;20170;-73
2022/03/10 03:22:18;;;;;;;32.67;23.63;;;11.90;58.40;;;;;;5076535;28;20047;-76
2022/03/10 03:24:45;;;;;;;32.60;24.30;;;11.90;58.40;;;;;;5076339;28;20462;-76
2022/03/10 03:27:11;;;;;;;33.47;23.23;;;11.90;58.30;;;;;;5076654;28;20032;-73
2022/03/10 03:29:37;;;;;;;31.52;23.17;;;11.80;58.40;;;;;;5076410;28;20073;-76
2022/03/10 03:32:03;;;;;;;34.60;24.33;;;11.80;58.50;;;;;;5076463;28;20025;-75
2022/03/10 03:34:29;;;;;;;31.38;22.80;;;11.80;58.90;;;;;;5075890;28;20044;-75
2022/03/10 03:36:54;;;;;;;32.90;23.50;;;11.70;58.90;;;;;;5076485;28;20032;-75
2022/03/10 03:39:20;;;;;;;29.80;23.20;;;11.70;58.80;;;;;;5075991;28;20025;-74
2022/03/10 03:41:46;;;;;;;35.05;23.88;;;11.70;59.00;;;;;;5076216;28;20095;-66
2022/03/10 03:44:12;;;;;;;35.05;24.33;;;11.70;59.00;;;;;;5076119;28;20104;-68
2022/03/10 03:46:38;;;;;;;35.67;23.23;;;11.70;59.20;;;;;;5076094;28;20028;-76
2022/03/10 03:49:04;;;;;;;37.72;24.70;;;11.70;59.20;;;;;;5076178;28;20107;-76
2022/03/10 03:51:29;;;;;;;32.88;24.80;;;11.70;59.30;;;;;;5076136;28;20105;-76
2022/03/10 03:53:55;;;;;;;31.77;24.17;;;11.70;59.20;;;;;;5075583;28;20538;-76
2022/03/10 03:56:21;;;;;;;31.65;23.10;;;11.70;59.40;;;;;;5075763;28;20397;-77
2022/03/10 03:58:47;;;;;;;33.03;23.73;;;11.60;59.60;;;;;;5076140;28;20381;-76
2022/03/10 04:01:12;;;;;;;34.70;23.83;;;11.60;59.50;;;;;;5075864;28;20025;-73
2022/03/10 04:03:38;;;;;;;30.42;23.35;;;11.60;59.60;;;;;;5075692;28;20052;-74
2022/03/10 04:06:04;;;;;;;32.70;23.70;;;11.50;59.50;;;;;;5075928;28;20035;-74
2022/03/10 04:08:30;;;;;;;32.90;23.17;;;11.60;59.60;;;;;;5075419;28;20033;-71
2022/03/10 04:10:55;;;;;;;31.27;23.73;;;11.60;59.60;;;;;;5075710;28;20050;-65
2022/03/10 04:13:21;;;;;;;30.95;22.73;;;11.80;60.20;;;;;;5075475;28;20517;-72
2022/03/10 04:15:49;;;;;;;32.03;23.25;;;11.90;59.60;;;;;;5076007;28;20047;-71
2022/03/10 04:18:16;;;;;;;32.15;24.35;;;12.00;59.00;;;;;;5088283;28;20012;-74
2022/03/10 04:20:42;;;;;;;30.08;23.45;;;12.00;59.00;;;;;;5081700;28;20079;-73
2022/03/10 04:23:09;;;;;;;31.75;23.83;;;12.00;58.90;;;;;;5075315;28;20060;-73
2022/03/10 04:25:35;;;;;;;28.55;22.60;;;12.00;58.90;;;;;;5075028;28;20032;-74
2022/03/10 04:28:01;;;;;;;29.35;23.40;;;12.00;58.80;;;;;;5073299;28;20032;-73
2022/03/10 04:30:26;;;;;;;28.77;22.67;;;12.00;58.70;;;;;;5075283;28;20028;-73
2022/03/10 04:32:52;;;;;;;32.22;23.17;;;12.00;58.70;;;;;;5075155;28;20074;-73
2022/03/10 04:35:19;;;;;;;34.10;23.50;;;12.00;58.60;;;;;;5075050;28;20514;-72
2022/03/10 04:37:48;;;;;;;32.38;24.05;;;12.00;58.70;;;;;;5074829;28;20527;-74
2022/03/10 04:40:14;;;;;;;30.55;22.70;;;11.90;58.60;;;;;;5075144;28;20378;-74
2022/03/10 04:42:41;;;;;;;33.85;23.52;;;11.90;58.80;;;;;;5075095;28;20507;-73
2022/03/10 04:45:08;;;;;;;28.50;21.60;;;11.90;59.00;;;;;;5075116;28;20021;-74
2022/03/10 04:47:34;;;;;;;28.88;23.00;;;11.90;59.20;;;;;;5074814;28;20023;-73
2022/03/10 04:50:00;;;;;;;34.08;23.48;;;11.80;59.10;;;;;;5075141;28;20021;-69
2022/03/10 04:52:27;;;;;;;31.95;22.38;;;11.80;59.20;;;;;;5074631;28;20021;-66
2022/03/10 04:54:53;;;;;;;33.17;22.20;;;11.80;59.20;;;;;;5074750;28;20064;-73
2022/03/10 04:57:19;;;;;;;29.40;22.58;;;11.80;59.10;;;;;;5074786;28;20103;-71
2022/03/10 04:59:44;;;;;;;32.55;22.85;;;11.80;59.20;;;;;;5074752;28;20059;-74
2022/03/10 05:02:10;;;;;;;30.67;22.10;;;11.70;59.20;;;;;;5074357;28;20021;-73
2022/03/10 05:04:35;;;;;;;34.70;23.65;;;11.70;59.40;;;;;;5074813;28;20024;-69
2022/03/10 05:07:01;;;;;;;30.90;23.30;;;11.70;59.40;;;;;;5074063;28;20028;-75
2022/03/10 05:09:27;;;;;;;32.58;22.90;;;11.70;59.60;;;;;;5074523;28;20035;-73
2022/03/10 05:11:52;;;;;;;32.88;22.65;;;11.70;59.60;;;;;;5073686;28;20028;-74
2022/03/10 05:14:18;;;;;;;37.10;24.77;;;11.70;59.70;;;;;;5074216;28;20068;-72
2022/03/10 05:16:44;;;;;;;34.05;24.65;;;11.70;59.40;;;;;;5073902;28;20036;-73
2022/03/10 05:19:09;;;;;;;34.00;24.55;;;11.60;59.60;;;;;;5074410;28;20025;-74
2022/03/10 05:21:36;;;;;;;30.95;24.30;;;11.60;59.50;;;;;;5074219;28;20020;-72
2022/03/10 05:24:01;;;;;;;31.95;24.48;;;11.50;59.60;;;;;;5074065;28;20021;-72
2022/03/10 05:26:27;;;;;;;31.35;24.10;;;11.50;59.80;;;;;;5074376;28;20035;-74
2022/03/10 05:28:52;;;;;;;30.17;23.60;;;11.50;59.80;;;;;;5074041;28;20059;-74
2022/03/10 05:31:18;;;;;;;31.02;23.77;;;11.40;59.90;;;;;;5074115;28;20477;-74
2022/03/10 05:33:43;;;;;;;35.17;23.83;;;11.40;59.70;;;;;;5073724;28;20473;-72
2022/03/10 05:36:09;;;;;;;33.38;23.90;;;11.40;59.90;;;;;;5073757;28;20029;-73
2022/03/10 05:38:34;;;;;;;31.13;23.98;;;11.40;59.90;;;;;;5073794;28;20035;-72
2022/03/10 05:41:00;;;;;;;35.78;26.95;;;11.40;60.00;;;;;;5056008;28;20028;-70
2022/03/10 05:43:26;;;;;;;36.75;27.35;;;11.40;60.10;;;;;;5073777;28;20046;-74
2022/03/10 05:45:51;;;;;;;36.35;25.50;;;11.50;60.50;;;;;;5073689;28;20047;-73
2022/03/10 05:48:17;;;;;;;33.47;25.20;;;11.40;60.20;;;;;;5073698;28;20091;-74
2022/03/10 05:50:43;;;;;;;38.20;26.15;;;11.40;60.30;;;;;;5073366;28;20028;-74
2022/03/10 05:53:08;;;;;;;37.45;25.80;;;11.40;60.50;;;;;;5073616;28;20029;-71
2022/03/10 05:55:34;;;;;;;40.63;26.35;;;11.40;60.30;;;;;;5073668;28;20046;-73
2022/03/10 05:58:00;;;;;;;36.20;26.48;;;11.30;60.30;;;;;;5073437;28;20016;-75
2022/03/10 06:00:25;;;;;;;34.58;23.85;;;11.30;60.30;;;;;;5074127;28;20131;-73
2022/03/10 06:02:51;;;;;;;32.65;25.13;;;11.30;60.30;;;;;;5089017;28;20060;-73
2022/03/10 06:05:17;;;;;;;35.95;25.42;;;11.30;60.40;;;;;;5084315;28;20043;-74
2022/03/10 06:07:43;;;;;;;33.35;24.67;;;11.30;60.50;;;;;;5091674;28;20024;-72
2022/03/10 06:10:09;;;;;;;35.10;25.25;;;11.20;60.50;;;;;;5071549;28;20027;-72
2022/03/10 06:12:34;;;;;;;32.00;24.70;;;11.20;60.50;;;;;;5093725;28;20028;-71
2022/03/10 06:15:06;;;;;;;32.75;24.23;;;11.20;60.80;;;;;;5088710;28;20123;-71
2022/03/10 06:17:32;;;;;;;35.08;24.88;;;11.10;60.90;;;;;;5084905;28;20031;-61
2022/03/10 06:19:58;;;;;;;33.05;23.55;;;11.10;61.00;;;;;;5084143;28;20020;-73
2022/03/10 06:22:29;;;;;;;33.55;24.30;;;11.10;61.00;;;;;;5085787;28;20024;-72
2022/03/10 06:24:54;;;;;;;32.35;23.40;;;11.10;61.00;;;;;;5089577;28;20016;-74
2022/03/10 06:27:23;;;;;;;33.08;23.73;;;11.10;61.10;;;;;;5064433;28;20027;-74
2022/03/10 06:29:50;;;;;;;30.98;23.33;;;11.20;61.40;;;;;;5090509;28;20171;-71
2022/03/10 06:32:17;;;;;;;37.03;23.70;;;11.10;61.20;;;;;;5087598;28;20012;-71
2022/03/10 06:34:44;;;;;;;30.95;24.02;;;11.10;61.40;;;;;;5090294;28;20104;-75
2022/03/10 06:37:09;;;;;;;37.08;24.25;;;11.10;61.40;;;;;;5090123;28;20028;-70
2022/03/10 06:39:35;;;;;;;29.85;23.73;;;11.10;61.50;;;;;;5085634;28;20036;-69
2022/03/10 06:42:02;;;;;;;35.53;24.00;;;11.10;61.60;;;;;;5088489;28;20025;-77
2022/03/10 06:44:29;;;;;;;40.72;25.13;;;11.00;62.30;;;;;;5088579;28;20043;-72
2022/03/10 06:46:55;;;;;;;37.03;24.02;;;11.00;61.70;;;;;;5086047;28;20043;-76
2022/03/10 06:49:21;;;;;;;32.42;24.90;;;10.90;61.90;;;;;;5084449;28;20052;-63
2022/03/10 06:51:48;;;;;;;37.20;26.20;;;10.90;61.90;;;;;;5084813;28;20040;-65
2022/03/10 06:54:14;;;;;;;37.63;25.35;;;10.90;62.10;;;;;;5078993;28;20040;-68
2022/03/10 06:56:39;;;;;;;33.97;24.90;;;10.80;62.10;;;;;;5078792;28;20410;-64
2022/03/10 06:59:06;;;;;;;34.17;24.42;;;10.80;62.30;;;;;;5086843;28;20032;-63
2022/03/10 07:01:32;;;;;;;34.38;24.33;;;10.90;62.70;;;;;;5081713;28;20020;-60
2022/03/10 07:03:59;;;;;;;35.05;23.67;;;10.80;62.70;;;;;;5087661;28;20020;-67
2022/03/10 07:06:25;;;;;;;32.13;24.02;;;10.80;62.90;;;;;;5081003;28;20100;-62
2022/03/10 07:08:51;;;;;;;36.60;25.27;;;10.80;63.10;;;;;;5080603;28;20081;-71
2022/03/10 07:11:18;;;;;;;33.58;23.63;;;10.80;63.10;;;;;;5080971;28;20028;-68
2022/03/10 07:13:44;;;;;;;30.88;23.48;;;10.80;63.20;;;;;;5086289;28;20085;-63
2022/03/10 07:16:10;;;;;;;35.05;24.33;;;10.80;63.40;;;;;;5087664;28;20395;-62
2022/03/10 07:18:36;;;;;;;37.42;21.98;;;10.80;63.60;;;;;;5073935;28;20470;-65
2022/03/10 07:21:04;;;;;;;27.55;19.98;;;10.80;63.90;;;;;;5090513;28;20034;-69
2022/03/10 07:23:30;;;;;;;33.15;23.00;;;10.90;64.20;;;;;;5091813;28;20099;-67
2022/03/10 07:25:55;;;;;;;30.15;22.00;;;10.90;64.20;;;;;;5084757;28;20027;-64
2022/03/10 07:28:21;;;;;;;33.50;24.67;;;11.00;65.20;;;;;;5076749;28;20095;-66
2022/03/10 07:30:47;;;;;;;30.50;23.33;;;11.00;64.90;;;;;;5091489;28;20077;-64
2022/03/10 07:33:12;;;;;;;34.30;24.67;;;11.00;64.70;;;;;;5092536;28;20101;-65
2022/03/10 07:35:38;;;;;;;32.13;22.50;;;11.00;64.70;;;;;;5092105;28;20036;-64
2022/03/10 07:38:04;;;;;;;28.77;23.13;;;11.00;65.10;;;;;;5092504;28;20528;-66
2022/03/10 07:40:30;;;;;;;30.08;23.60;;;11.10;64.90;;;;;;5076163;28;20029;-65
2022/03/10 07:42:55;;;;;;;30.35;23.05;;;11.20;64.90;;;;;;5070987;28;20024;-64
2022/03/10 07:45:21;;;;;;;29.77;21.95;;;11.20;64.90;;;;;;5075103;28;20020;-67
2022/03/10 07:47:47;;;;;;;29.55;23.23;;;11.30;64.90;;;;;;5092643;28;20031;-67
2022/03/10 07:50:12;;;;;;;35.40;24.58;;;11.30;64.90;;;;;;5092101;28;20028;-67
2022/03/10 07:52:39;;;;;;;30.73;23.33;;;11.30;64.90;;;;;;5086769;28;20028;-64
2022/03/10 07:55:05;;;;;;;33.45;23.40;;;11.30;64.90;;;;;;5091030;28;20028;-68
2022/03/10 07:57:31;;;;;;;32.08;22.65;;;11.40;65.00;;;;;;5084766;28;20017;-64
2022/03/10 07:59:56;;;;;;;33.15;22.38;;;11.50;65.00;;;;;;5088197;28;20561;-68
2022/03/10 08:02:22;;;;;;;34.03;23.23;;;11.50;65.00;;;;;;5093612;28;20024;-71
2022/03/10 08:04:48;;;;;;;31.70;22.63;;;11.60;65.20;;;;;;5095725;28;20032;-74
2022/03/10 08:07:14;;;;;;;33.90;23.73;;;11.60;65.10;;;;;;5096492;28;20368;-59
2022/03/10 08:09:39;;;;;;;38.63;22.83;;;11.60;64.90;;;;;;5095743;28;20020;-59
2022/03/10 08:12:05;;;;;;;30.73;23.05;;;11.70;65.00;;;;;;5095764;28;20054;-59
2022/03/10 08:14:31;;;;;;;37.17;24.25;;;11.70;64.90;;;;;;5095490;28;20549;-59
2022/03/10 08:16:56;;;;;;;28.95;23.65;;;11.70;64.80;;;;;;5095439;28;20110;-60
2022/03/10 08:19:22;;;;;;;29.35;23.00;;;11.80;64.70;;;;;;5062787;28;20032;-57
2022/03/10 08:21:49;;;;;;;34.60;22.95;;;11.80;64.60;;;;;;5075402;28;20082;-60
2022/03/10 08:24:14;;;;;;;29.73;23.30;;;11.90;64.70;;;;;;5075383;28;20025;-59
2022/03/10 08:26:40;;;;;;;28.58;22.10;;;11.80;64.50;;;;;;5075427;28;20032;-61
2022/03/10 08:29:07;;;;;;;31.40;21.92;;;11.90;64.50;;;;;;5075008;28;20355;-60
2022/03/10 08:31:32;;;;;;;28.27;21.85;;;11.90;64.40;;;;;;5075028;28;20469;-60
2022/03/10 08:33:58;;;;;;;27.30;21.92;;;11.90;64.50;;;;;;5086338;28;20031;-62
2022/03/10 08:36:24;;;;;;;31.98;22.70;;;12.00;65.00;;;;;;5095327;28;20040;-60
2022/03/10 08:38:49;;;;;;;32.38;23.83;;;12.00;65.20;;;;;;5092980;28;20100;-54
2022/03/10 08:41:15;;;;;;;28.10;23.10;;;12.00;67.70;;;;;;5095246;28;20488;-62
2022/03/10 08:43:41;;;;;;;31.33;22.65;;;12.00;68.40;;;;;;5092059;28;20020;-64
2022/03/10 08:46:06;;;;;;;30.20;23.60;;;12.10;68.40;;;;;;5084289;28;20060;-62
2022/03/10 08:48:34;;;;;;;31.83;24.40;;;12.10;67.40;;;;;;5089518;28;20028;-74
2022/03/10 08:51:02;;;;;;;31.25;23.05;;;12.20;66.10;;;;;;5093651;28;20028;-66
2022/03/10 08:53:28;;;;;;;27.92;22.88;;;12.20;66.00;;;;;;5094140;28;20062;-66
2022/03/10 08:55:53;;;;;;;26.60;22.90;;;12.20;66.00;;;;;;5095051;28;20028;-61
2022/03/10 08:58:19;;;;;;;29.17;22.88;;;12.20;66.20;;;;;;5094614;28;20499;-65
2022/03/10 09:00:45;;;;;;;30.70;22.92;;;12.20;66.10;;;;;;5095078;28;20016;-62
2022/03/10 09:03:10;;;;;;;25.90;21.35;;;12.20;67.10;;;;;;5089766;28;20012;-70
2022/03/10 09:05:37;;;;;;;28.92;22.58;;;12.20;66.70;;;;;;5080739;28;20035;-72
2022/03/10 09:08:03;;;;;;;27.65;22.08;;;12.30;66.80;;;;;;5074265;28;20401;-72
2022/03/10 09:10:29;;;;;;;29.17;22.90;;;12.30;66.60;;;;;;5074518;28;20530;-72
2022/03/10 09:12:56;;;;;;;35.58;22.35;;;12.30;67.10;;;;;;5073554;28;20061;-72
2022/03/10 09:15:21;;;;;;;45.63;22.02;;;12.30;66.80;;;;;;5074318;28;20035;-74
2022/03/10 09:17:47;;;;;;;37.42;21.60;;;12.30;66.80;;;;;;5074410;28;20020;-74
2022/03/10 09:20:16;;;;;;;30.80;21.45;;;12.40;66.80;;;;;;5074062;28;20020;-74
2022/03/10 09:22:42;;;;;;;28.58;21.27;;;12.40;66.70;;;;;;5074144;28;20116;-72
2022/03/10 09:25:09;;;;;;;28.05;21.33;;;12.40;66.40;;;;;;5094077;28;20040;-75
2022/03/10 09:27:36;;;;;;;29.23;20.50;;;12.40;66.60;;;;;;5093899;28;20493;-74
2022/03/10 09:30:02;;;;;;;29.27;22.45;;;12.40;66.40;;;;;;5094306;28;20024;-74
2022/03/10 09:32:38;;;;;;;28.95;20.00;;;12.50;66.40;;;;;;5094289;28;20516;-72
2022/03/10 09:35:05;;;;;;;27.95;21.20;;;12.50;66.70;;;;;;5093829;28;20546;-74
2022/03/10 09:37:31;;;;;;;24.15;20.25;;;12.50;66.40;;;;;;5094082;28;20028;-70
2022/03/10 09:39:57;;;;;;;27.02;21.25;;;12.50;66.50;;;;;;5081144;28;20032;-72
2022/03/10 09:42:28;;;;;;;25.85;20.92;;;12.50;66.40;;;;;;5077429;28;20043;-73
2022/03/10 09:44:58;;;;;;;31.83;22.50;;;12.60;66.50;;;;;;5077438;28;20032;-74
2022/03/10 09:47:24;;;;;;;30.65;21.15;;;12.60;66.40;;;;;;5085815;28;20020;-74
2022/03/10 09:49:51;;;;;;;25.38;20.55;;;12.60;66.30;;;;;;5093866;28;20385;-73
2022/03/10 09:52:17;;;;;;;29.42;22.67;;;12.60;66.30;;;;;;5093764;28;20012;-75
2022/03/10 09:54:43;;;;;;;27.92;20.77;;;12.60;66.30;;;;;;5093658;28;20032;-72
2022/03/10 09:57:09;;;;;;;24.45;20.15;;;12.60;66.50;;;;;;5093592;28;20027;-73
2022/03/10 09:59:52;;;;;;;28.40;21.80;;;12.60;66.60;;;;;;5093760;28;20492;-73
2022/03/10 10:02:18;;;;;;;28.00;20.55;;;12.70;66.70;;;;;;5089443;28;20024;-77
2022/03/10 10:04:44;;;;;;;28.00;20.35;;;12.70;66.70;;;;;;5082326;28;20020;-73
2022/03/10 10:07:11;;;;;;;26.70;21.13;;;12.70;66.60;;;;;;5088554;28;20021;-74
2022/03/10 10:09:45;;;;;;;25.35;20.13;;;12.70;66.50;;;;;;5081468;28;20107;-76
2022/03/10 10:12:12;;;;;;;28.50;21.30;;;12.70;66.50;;;;;;5071915;28;20016;-75
2022/03/10 10:14:46;;;;;;;25.98;19.38;;;12.80;66.60;;;;;;5071808;28;20060;-77
2022/03/10 10:17:12;;;;;;;29.52;20.42;;;12.80;66.80;;;;;;5071968;28;20029;-77
2022/03/10 10:19:40;;;;;;;29.85;20.63;;;12.70;66.80;;;;;;5077576;28;20035;-76
2022/03/10 10:22:23;;;;;;;25.80;19.08;;;12.80;66.80;;;;;;5092540;28;20027;-74
2022/03/10 10:24:50;;;;;;;26.67;20.00;;;12.80;67.00;;;;;;5090874;28;20062;-73
2022/03/10 10:27:24;;;;;;;25.63;19.60;;;12.80;67.00;;;;;;5092081;28;20405;-77
2022/03/10 10:29:52;;;;;;;25.85;20.23;;;12.80;67.20;;;;;;5086565;28;20039;-76
2022/03/10 10:32:53;;;;;;;25.05;19.02;;;12.80;66.90;;;;;;5071590;28;20093;-71
2022/03/10 10:35:22;;;;;;;49.42;20.42;;;12.90;67.00;;;;;;5071840;28;20044;-71
2022/03/10 10:37:50;;;;;;;25.20;18.42;;;12.90;67.70;;;;;;5071624;28;20020;-73
2022/03/10 10:40:27;;;;;;;23.67;18.80;;;12.90;66.80;;;;;;5071347;28;20420;-72
2022/03/10 10:42:53;;;;;;;26.70;17.85;;;13.00;66.40;;;;;;5071860;28;20024;-72
2022/03/10 10:45:29;;;;;;;23.15;16.70;;;13.00;67.20;;;;;;5088540;28;20062;-68
2022/03/10 10:47:58;;;;;;;23.40;16.10;;;13.10;67.30;;;;;;5091710;28;20170;-73
2022/03/10 10:50:24;;;;;;;21.55;17.85;;;13.10;67.30;;;;;;5091900;28;20053;-66
2022/03/10 10:52:49;;;;;;;25.98;18.88;;;13.00;67.60;;;;;;5073823;28;20036;-70
2022/03/10 10:55:15;;;;;;;23.38;18.40;;;13.10;67.40;;;;;;5090379;28;20051;-69
2022/03/10 10:57:43;;;;;;;27.83;16.98;;;13.10;66.70;;;;;;5091547;28;20028;-70
2022/03/10 11:00:11;;;;;;;22.58;18.52;;;13.10;68.40;;;;;;5090993;28;20496;-72
2022/03/10 11:02:41;;;;;;;25.40;16.77;;;13.20;67.80;;;;;;5080992;28;20043;-75
2022/03/10 11:05:08;;;;;;;23.08;17.23;;;13.20;67.90;;;;;;5080507;28;20054;-72
2022/03/10 11:07:35;;;;;;;23.70;17.60;;;13.20;67.70;;;;;;5075555;28;20029;-73
2022/03/10 11:10:03;;;;;;;21.05;15.50;;;13.20;67.50;;;;;;5086778;28;20050;-72
2022/03/10 11:12:29;;;;;;;24.77;17.80;;;13.20;67.50;;;;;;5090981;28;20481;-71
2022/03/10 11:14:55;;;;;;;19.38;16.02;;;13.20;67.30;;;;;;5091336;28;20032;-72
2022/03/10 11:17:20;;;;;;;26.08;18.30;;;13.30;67.30;;;;;;5089899;28;20473;-72
2022/03/10 11:19:53;;;;;;;20.83;16.95;;;13.30;67.10;;;;;;5071251;28;20028;-70
2022/03/10 11:22:25;;;;;;;;;;;13.30;67.10;;;;;;5072023;28;20028;-69
2022/03/10 11:25:09;;;;;;;23.42;16.98;;;13.30;66.70;;;;;;5071189;28;19947;-73
2022/03/10 11:27:39;;;;;;;23.35;17.25;;;13.30;67.10;;;;;;5071269;28;20107;-71
2022/03/10 11:30:06;;;;;;;22.80;17.60;;;13.40;66.70;;;;;;5084844;28;20020;-73
2022/03/10 11:32:32;;;;;;;24.73;17.60;;;13.30;66.70;;;;;;5079482;28;20024;-69
2022/03/10 11:35:00;;;;;;;22.80;17.25;;;13.40;67.20;;;;;;5081589;28;20094;-73
2022/03/10 11:37:42;;;;;;;21.50;16.73;;;13.40;67.20;;;;;;5067866;28;20122;-71
2022/03/10 11:40:13;;;;;;;24.50;18.15;;;13.40;67.10;;;;;;5076520;28;20071;-74
2022/03/10 11:42:40;;;;;;;26.75;17.10;;;13.40;66.70;;;;;;5084132;28;20424;-72
2022/03/10 11:45:16;;;;;;;25.77;17.85;;;13.40;66.50;;;;;;5096222;28;20177;-75
2022/03/10 11:47:42;;;;;;;22.52;17.60;;;13.50;66.50;;;;;;5086536;28;20063;-75
2022/03/10 11:50:22;;;;;;;20.73;16.73;;;13.50;66.80;;;;;;5096195;28;20028;-74
2022/03/10 11:52:53;;;;;;;22.90;16.40;;;13.50;66.80;;;;;;5096068;28;20024;-70
2022/03/10 11:55:21;;;;;;;24.25;16.85;;;13.50;67.70;;;;;;5094034;28;20048;-73
2022/03/10 11:57:53;;;;;;;23.52;18.15;;;13.50;66.70;;;;;;5069996;28;20031;-74
2022/03/10 12:00:22;;;;;;;26.60;18.88;;;13.60;65.70;;;;;;5093115;28;20058;-73
2022/03/10 12:02:57;;;;;;;21.48;16.25;;;13.50;65.50;;;;;;5076994;28;20036;-74
2022/03/10 12:05:23;;;;;;;20.40;14.70;;;13.60;66.70;;;;;;5075600;28;20028;-74
2022/03/10 12:07:54;;;;;;;22.23;14.27;;;13.60;68.10;;;;;;5075369;28;20077;-69
2022/03/10 12:10:20;;;;;;;17.48;14.05;;;13.60;67.50;;;;;;5076378;28;20025;-74
2022/03/10 12:12:46;;;;;;;21.08;15.02;;;13.60;67.20;;;;;;5072693;28;20028;-68
2022/03/10 12:15:23;;;;;;;15.77;11.95;;;13.70;66.60;;;;;;5074254;28;20036;-71
2022/03/10 12:17:56;;;;;;;18.02;12.70;;;13.70;67.10;;;;;;5057409;28;20032;-70
2022/03/10 12:20:23;;;;;;;16.48;13.23;;;13.70;67.00;;;;;;5075509;28;21974;-69
2022/03/10 12:23:09;;;;;;;18.50;14.02;;;13.70;66.60;;;;;;5093241;28;20036;-70
2022/03/10 12:25:54;;;;;;;22.50;14.20;;;13.80;66.20;;;;;;5093514;28;20054;-72
2022/03/10 12:28:26;;;;;;;15.38;12.07;;;13.80;65.30;;;;;;5093036;28;20081;-73
2022/03/10 12:31:16;;;;;;;17.73;13.65;;;13.80;66.40;;;;;;5055989;28;20021;-69
2022/03/10 12:33:46;;;;;;;22.75;13.90;;;13.90;65.90;;;;;;5090591;28;20028;-73